createdAt,value
2018-09-03T00:02:04.621Z,95431.33
2018-09-03T00:04:35.387Z,95434.33
2018-09-03T00:07:05.958Z,95431.42
2018-09-03T00:09:41.709Z,95427.68
2018-09-03T00:12:13.123Z,95425.91
2018-09-03T00:14:43.676Z,95428.59
2018-09-03T00:17:14.159Z,95433.20
2018-09-03T00:19:44.489Z,95434.97
2018-09-03T00:22:15.310Z,95434.19
2018-09-03T00:24:45.852Z,95436.91
2018-09-03T00:27:16.138Z,95435.73
2018-09-03T00:29:46.702Z,95432.44
2018-09-03T00:32:23.029Z,95427.02
2018-09-03T00:34:58.158Z,95428.69
2018-09-03T00:37:33.726Z,95439.98
2018-09-03T00:40:09.346Z,95435.17
2018-09-03T00:42:44.764Z,95433.63
2018-09-03T00:45:20.220Z,95428.59
2018-09-03T00:47:50.580Z,95430.33
2018-09-03T00:50:20.873Z,95432.33
2018-09-03T00:52:52.364Z,95429.95
2018-09-03T00:55:22.676Z,95426.87
2018-09-03T00:57:53.163Z,95427.66
2018-09-03T01:00:23.689Z,95430.44
2018-09-03T01:02:54.931Z,95429.66
2018-09-03T01:05:25.833Z,95425.08
2018-09-03T01:07:56.620Z,95427.19
2018-09-03T01:10:26.963Z,95431.52
2018-09-03T01:12:58.440Z,95430.62
2018-09-03T01:15:31.292Z,95428.89
2018-09-03T01:18:02.930Z,95430.37
2018-09-03T01:20:33.600Z,95431.18
2018-09-03T01:23:04.649Z,95424.78
2018-09-03T01:25:34.948Z,95422.05
2018-09-03T01:28:05.337Z,95431.05
2018-09-03T01:30:35.893Z,95424.77
2018-09-03T01:33:07.037Z,95423.89
2018-09-03T01:35:37.481Z,95430.17
2018-09-03T01:38:08.106Z,95428.91
2018-09-03T01:40:38.688Z,95429.48
2018-09-03T01:43:10.479Z,95423.17
2018-09-03T01:45:40.784Z,95427.02
2018-09-03T01:48:11.663Z,95425.08
2018-09-03T01:50:42.354Z,95416.66
2018-09-03T01:53:13.290Z,95428.91
2018-09-03T01:55:43.493Z,95420.95
2018-09-03T01:58:14.162Z,95427.69
2018-09-03T02:00:44.549Z,95427.89
2018-09-03T02:03:15.755Z,95427.02
2018-09-03T02:05:46.504Z,95421.70
2018-09-03T02:08:17.095Z,95427.24
2018-09-03T02:10:47.355Z,95426.80
2018-09-03T02:13:18.146Z,95424.19
2018-09-03T02:15:48.725Z,95415.98
2018-09-03T02:18:18.806Z,95415.53
2018-09-03T02:20:49.196Z,95405.86
2018-09-03T02:23:19.748Z,95414.66
2018-09-03T02:25:50.160Z,95407.00
2018-09-03T02:28:20.511Z,95406.44
2018-09-03T02:30:51.047Z,95407.34
2018-09-03T02:33:21.881Z,95396.98
2018-09-03T02:35:52.394Z,95402.19
2018-09-03T02:38:22.731Z,95397.13
2018-09-03T02:40:53.152Z,95403.41
2018-09-03T02:43:23.692Z,95407.20
2018-09-03T02:45:54.169Z,95408.77
2018-09-03T02:48:24.315Z,95413.80
2018-09-03T02:50:54.606Z,95413.06
2018-09-03T02:53:25.046Z,95402.53
2018-09-03T02:55:55.594Z,95403.80
2018-09-03T02:58:25.831Z,95405.41
2018-09-03T03:00:56.265Z,95410.12
2018-09-03T03:03:27.485Z,95410.02
2018-09-03T03:05:57.782Z,95410.92
2018-09-03T03:08:28.351Z,95415.09
2018-09-03T03:10:58.885Z,95409.45
2018-09-03T03:13:29.747Z,95405.52
2018-09-03T03:15:59.948Z,95411.45
2018-09-03T03:18:30.226Z,95410.80
2018-09-03T03:21:00.731Z,95416.07
2018-09-03T03:23:31.904Z,95411.24
2018-09-03T03:26:02.463Z,95413.61
2018-09-03T03:28:33.073Z,95411.80
2018-09-03T03:31:03.610Z,95413.96
2018-09-03T03:33:34.468Z,95410.36
2018-09-03T03:36:05.386Z,95409.44
2018-09-03T03:38:35.503Z,95407.66
2018-09-03T03:41:06.044Z,95403.81
2018-09-03T03:43:37.439Z,95400.20
2018-09-03T03:46:08.091Z,95397.84
2018-09-03T03:48:38.536Z,95409.98
2018-09-03T03:51:09.048Z,95402.01
2018-09-03T03:53:40.266Z,95398.33
2018-09-03T03:56:11.136Z,95404.17
2018-09-03T03:58:41.767Z,95398.88
2018-09-03T04:01:12.169Z,95407.88
2018-09-03T04:03:43.062Z,95406.09
2018-09-03T04:06:14.069Z,95410.30
2018-09-03T04:08:44.465Z,95413.63
2018-09-03T04:11:14.893Z,95411.88
2018-09-03T04:13:45.994Z,95413.45
2018-09-03T04:16:16.506Z,95413.52
2018-09-03T04:18:47.144Z,95418.77
2018-09-03T04:21:17.572Z,95422.91
2018-09-03T04:23:47.830Z,95412.08
2018-09-03T04:26:18.363Z,95413.37
2018-09-03T04:28:48.732Z,95411.70
2018-09-03T04:31:19.536Z,95402.88
2018-09-03T04:33:51.012Z,95399.63
2018-09-03T04:36:21.637Z,95400.28
2018-09-03T04:38:52.351Z,95399.21
2018-09-03T04:41:23.007Z,95393.93
2018-09-03T04:43:54.350Z,95397.94
2018-09-03T04:46:24.676Z,95398.05
2018-09-03T04:48:55.286Z,95399.22
2018-09-03T04:51:25.779Z,95394.49
2018-09-03T04:53:57.485Z,95394.17
2018-09-03T04:56:28.523Z,95398.67
2018-09-03T04:58:59.247Z,95398.22
2018-09-03T05:01:29.910Z,95398.92
2018-09-03T05:04:00.181Z,95396.13
2018-09-03T05:06:30.983Z,95394.18
2018-09-03T05:09:01.107Z,95389.81
2018-09-03T05:11:31.359Z,95387.23
2018-09-03T05:14:02.142Z,95383.26
2018-09-03T05:16:32.430Z,95398.84
2018-09-03T05:19:03.119Z,95389.53
2018-09-03T05:21:33.791Z,95395.19
2018-09-03T05:24:05.003Z,95391.17
2018-09-03T05:26:35.508Z,95372.69
2018-09-03T05:29:05.847Z,95374.72
2018-09-03T05:31:36.312Z,95381.59
2018-09-03T05:34:06.866Z,95380.91
2018-09-03T05:36:37.333Z,95294.69
2018-09-03T05:39:10.319Z,95384.02
2018-09-03T05:41:40.474Z,95382.91
2018-09-03T05:44:11.835Z,95380.35
2018-09-03T05:46:42.456Z,95384.52
2018-09-03T05:49:13.186Z,95379.54
2018-09-03T05:51:43.640Z,95384.19
2018-09-03T05:54:14.302Z,95384.81
2018-09-03T05:56:45.096Z,95381.42
2018-09-03T05:59:15.488Z,95375.33
2018-09-03T06:01:46.122Z,95377.52
2018-09-03T06:04:17.088Z,95369.44
2018-09-03T06:06:47.809Z,95376.03
2018-09-03T06:09:18.455Z,95372.97
2018-09-03T06:11:48.663Z,95365.74
2018-09-03T06:14:19.629Z,95366.63
2018-09-03T06:16:50.377Z,95365.64
2018-09-03T06:19:20.851Z,95359.02
2018-09-03T06:21:51.400Z,95355.02
2018-09-03T06:24:22.319Z,95355.32
2018-09-03T06:26:52.508Z,95352.50
2018-09-03T06:29:22.882Z,95353.41
2018-09-03T06:31:53.241Z,95356.39
2018-09-03T06:34:23.698Z,95362.13
2018-09-03T06:36:53.461Z,95356.36
2018-09-03T06:39:23.380Z,95355.78
2018-09-03T06:41:53.139Z,95359.09
2018-09-03T06:44:22.977Z,95355.84
2018-09-03T06:46:52.807Z,95354.48
2018-09-03T06:49:22.717Z,95351.47
2018-09-03T06:51:52.546Z,95352.27
2018-09-03T06:54:22.454Z,95354.57
2018-09-03T06:56:52.292Z,95356.41
2018-09-03T06:59:22.346Z,95351.49
2018-09-03T07:01:52.080Z,95351.90
2018-09-03T07:04:21.705Z,95352.11
2018-09-03T07:06:52.697Z,95344.80
2018-09-03T07:09:23.027Z,95347.75
2018-09-03T07:11:53.757Z,95345.20
2018-09-03T07:14:24.551Z,95343.05
2018-09-03T07:16:54.791Z,95338.90
2018-09-03T07:19:24.642Z,95337.07
2018-09-03T07:21:54.591Z,95336.28
2018-09-03T07:24:25.296Z,95329.65
2018-09-03T07:26:55.158Z,95330.35
2018-09-03T07:29:25.005Z,95329.81
2018-09-03T07:31:55.606Z,95319.84
2018-09-03T07:34:26.812Z,95320.15
2018-09-03T07:36:57.254Z,95309.12
2018-09-03T07:39:27.830Z,95303.75
2018-09-03T07:41:58.400Z,95297.92
2018-09-03T07:44:28.918Z,95300.09
2018-09-03T07:46:59.388Z,95294.09
2018-09-03T07:49:30.119Z,95109.53
2018-09-03T08:03:16.534Z,95281.77
2018-09-03T08:05:47.340Z,95281.88
2018-09-03T08:08:17.883Z,95282.69
2018-09-03T08:10:48.502Z,95288.11
2018-09-03T08:13:24.360Z,95288.42
2018-09-03T08:15:54.551Z,95281.37
2018-09-03T08:18:24.876Z,95269.28
2018-09-03T08:20:55.723Z,95267.77
2018-09-03T08:23:26.062Z,95264.06
2018-09-03T08:25:56.548Z,95265.25
2018-09-03T08:28:27.255Z,95258.39
2018-09-03T08:30:58.326Z,95245.92
2018-09-03T08:33:28.945Z,95236.44
2018-09-03T08:35:59.518Z,95237.87
2018-09-03T08:38:29.959Z,95230.23
2018-09-03T08:41:01.616Z,95234.23
2018-09-03T08:43:32.139Z,95231.17
2018-09-03T08:46:02.673Z,95228.48
2018-09-03T08:48:33.515Z,95215.20
2018-09-03T08:51:04.806Z,95209.20
2018-09-03T08:53:35.453Z,95201.28
2018-09-03T08:56:06.010Z,95194.47
2018-09-03T08:58:36.860Z,95193.02
2018-09-03T09:01:07.794Z,95186.28
2018-09-03T09:03:41.519Z,95183.48
2018-09-03T09:06:12.399Z,95179.94
2018-09-03T09:08:42.594Z,95181.73
2018-09-03T09:11:13.839Z,95186.23
2018-09-03T09:13:44.383Z,95169.41
2018-09-03T09:16:15.130Z,95167.05
2018-09-03T09:18:45.649Z,95164.44
2018-09-03T09:21:16.599Z,95161.94
2018-09-03T09:23:47.204Z,95144.85
2018-09-03T09:26:17.766Z,95138.06
2018-09-03T09:28:48.340Z,95136.80
2018-09-03T09:31:19.936Z,95132.48
2018-09-03T09:33:50.649Z,95136.09
2018-09-03T09:36:20.971Z,95120.09
2018-09-03T09:38:51.462Z,95114.94
2018-09-03T09:41:22.950Z,95110.00
2018-09-03T09:43:53.600Z,95105.47
2018-09-03T09:46:23.829Z,95104.58
2018-09-03T09:48:54.451Z,95099.83
2018-09-03T09:51:28.806Z,95107.95
2018-09-03T09:53:59.454Z,95100.42
2018-09-03T09:56:29.947Z,95088.34
2018-09-03T09:59:00.557Z,95082.42
2018-09-03T10:01:37.536Z,95080.95
2018-09-03T10:04:08.667Z,95072.81
2018-09-03T10:06:39.082Z,95072.19
2018-09-03T10:09:09.851Z,95071.08
2018-09-03T10:11:40.742Z,95060.91
2018-09-03T10:14:11.493Z,95049.71
2018-09-03T10:16:42.240Z,94992.55
2018-09-03T10:19:12.844Z,95042.58
2018-09-03T10:21:44.109Z,95046.88
2018-09-03T10:24:14.419Z,95040.92
2018-09-03T10:26:44.878Z,95033.51
2018-09-03T10:29:15.568Z,95031.34
2018-09-03T10:31:46.102Z,95032.45
2018-09-03T10:34:16.652Z,95024.39
2018-09-03T10:36:47.154Z,95020.73
2018-09-03T10:39:17.690Z,95021.88
2018-09-03T10:41:48.415Z,95012.99
2018-09-03T10:44:18.911Z,95003.09
2018-09-03T10:46:50.591Z,95003.42
2018-09-03T10:49:21.177Z,95000.17
2018-09-03T10:51:52.790Z,95003.23
2018-09-03T10:54:23.327Z,95001.12
2018-09-03T10:56:53.847Z,94999.20
2018-09-03T10:59:24.083Z,94997.56
2018-09-03T11:01:55.505Z,94990.70
2018-09-03T11:04:26.321Z,94996.50
2018-09-03T11:06:56.979Z,94999.04
2018-09-03T11:09:27.589Z,94989.84
2018-09-03T11:11:59.373Z,94984.84
2018-09-03T11:14:29.875Z,94981.10
2018-09-03T11:17:00.423Z,94976.70
2018-09-03T11:19:33.399Z,94973.77
2018-09-03T11:22:05.064Z,94978.63
2018-09-03T11:24:35.579Z,94970.75
2018-09-03T11:27:06.367Z,94963.69
2018-09-03T11:29:36.940Z,94960.61
2018-09-03T11:32:08.853Z,94956.30
2018-09-03T11:34:39.872Z,94953.55
2018-09-03T11:37:10.567Z,94953.23
2018-09-03T11:39:41.231Z,94944.38
2018-09-03T11:42:12.962Z,94950.90
2018-09-03T11:44:43.647Z,94949.80
2018-09-03T11:47:14.331Z,94941.52
2018-09-03T11:49:45.095Z,94943.67
2018-09-03T11:52:16.355Z,94941.91
2018-09-03T11:54:46.875Z,94934.26
2018-09-03T11:57:17.285Z,94933.34
2018-09-03T11:59:47.598Z,94930.23
2018-09-03T12:02:18.530Z,94929.94
2018-09-03T12:04:49.117Z,94926.17
2018-09-03T12:07:19.410Z,94923.09
2018-09-03T12:09:49.873Z,94920.74
2018-09-03T12:12:20.363Z,94919.67
2018-09-03T12:14:54.244Z,94918.76
2018-09-03T12:17:24.857Z,94913.77
2018-09-03T12:19:55.443Z,94920.03
2018-09-03T12:22:26.126Z,94912.46
2018-09-03T12:24:56.688Z,94905.59
2018-09-03T12:27:27.373Z,94902.90
2018-09-03T12:29:58.341Z,94901.97
2018-09-03T12:32:29.777Z,94890.66
2018-09-03T12:35:00.098Z,94900.08
2018-09-03T12:37:30.597Z,94883.62
2018-09-03T12:40:00.837Z,94891.47
2018-09-03T12:42:31.435Z,94892.17
2018-09-03T12:45:01.950Z,94890.18
2018-09-03T12:47:32.403Z,94885.46
2018-09-03T12:50:03.033Z,94880.65
2018-09-03T12:52:34.550Z,94874.02
2018-09-03T12:55:05.271Z,94868.09
2018-09-03T12:57:36.094Z,94865.20
2018-09-03T13:00:06.794Z,94860.41
2018-09-03T13:02:39.414Z,94857.15
2018-09-03T13:05:08.193Z,94853.31
2018-09-03T13:07:38.639Z,94853.81
2018-09-03T13:10:09.046Z,94849.81
2018-09-03T13:12:40.967Z,94853.45
2018-09-03T13:15:11.942Z,94847.51
2018-09-03T13:17:42.452Z,94850.81
2018-09-03T13:20:13.371Z,94853.18
2018-09-03T13:22:44.910Z,94857.58
2018-09-03T13:25:15.402Z,94850.91
2018-09-03T13:27:45.820Z,94841.56
2018-09-03T13:30:16.347Z,94839.69
2018-09-03T13:32:47.539Z,94834.17
2018-09-03T13:35:18.030Z,94826.03
2018-09-03T13:37:48.255Z,94831.41
2018-09-03T13:40:18.902Z,94823.12
2018-09-03T13:42:50.721Z,94819.20
2018-09-03T13:45:21.243Z,94822.58
2018-09-03T13:47:51.761Z,94820.81
2018-09-03T13:50:22.534Z,94815.52
2018-09-03T13:52:53.251Z,94820.72
2018-09-03T13:55:23.680Z,94811.97
2018-09-03T13:57:54.296Z,94817.87
2018-09-03T14:00:25.045Z,94813.39
2018-09-03T14:02:55.449Z,94806.52
2018-09-03T14:05:26.261Z,94806.33
2018-09-03T14:07:56.670Z,94800.45
2018-09-03T14:10:27.365Z,94803.19
2018-09-03T14:12:58.376Z,94804.55
2018-09-03T14:15:29.142Z,94804.72
2018-09-03T14:17:59.579Z,94798.05
2018-09-03T14:20:30.239Z,94804.19
2018-09-03T14:23:01.763Z,94786.33
2018-09-03T14:25:32.337Z,94791.06
2018-09-03T14:28:02.773Z,94794.59
2018-09-03T14:30:33.439Z,94793.73
2018-09-03T14:33:05.013Z,94798.00
2018-09-03T14:35:35.718Z,94789.38
2018-09-03T14:38:06.330Z,94790.26
2018-09-03T14:40:36.851Z,94785.84
2018-09-03T14:43:07.650Z,94794.05
2018-09-03T14:45:37.942Z,94792.86
2018-09-03T14:48:08.714Z,94792.17
2018-09-03T14:50:39.185Z,94782.88
2018-09-03T14:53:10.226Z,94778.94
2018-09-03T14:55:40.384Z,94776.14
2018-09-03T14:58:10.854Z,94787.34
2018-09-03T15:00:41.289Z,94777.72
2018-09-03T15:03:11.854Z,94777.83
2018-09-03T15:05:42.850Z,94783.71
2018-09-03T15:08:13.585Z,94779.08
2018-09-03T15:10:44.018Z,94779.89
2018-09-03T15:13:14.643Z,94780.94
2018-09-03T15:15:44.927Z,94781.04
2018-09-03T15:18:15.362Z,94783.01
2018-09-03T15:20:45.907Z,94773.99
2018-09-03T15:23:16.315Z,94779.41
2018-09-03T15:25:46.017Z,94780.10
2018-09-03T15:28:15.970Z,94777.70
2018-09-03T15:30:45.882Z,94781.32
2018-09-03T15:33:15.716Z,94779.75
2018-09-03T15:35:45.626Z,94785.94
2018-09-03T15:38:15.396Z,94777.42
2018-09-03T15:40:45.036Z,94780.02
2018-09-03T15:43:14.817Z,94780.05
2018-09-03T15:45:44.590Z,94785.42
2018-09-03T15:48:14.410Z,94789.11
2018-09-03T15:50:44.444Z,94781.28
2018-09-03T15:53:14.329Z,94779.67
2018-09-03T15:55:44.213Z,94774.23
2018-09-03T15:58:14.103Z,94770.69
2018-09-03T16:00:43.838Z,94775.86
2018-09-03T16:03:13.622Z,94773.45
2018-09-03T16:05:43.519Z,94777.36
2018-09-03T16:08:13.625Z,94776.42
2018-09-03T16:10:43.513Z,94781.36
2018-09-03T16:13:13.452Z,94777.73
2018-09-03T16:15:43.368Z,94781.62
2018-09-03T16:18:13.491Z,94781.42
2018-09-03T16:20:43.411Z,94789.75
2018-09-03T16:23:13.380Z,94782.30
2018-09-03T16:25:43.265Z,94787.87
2018-09-03T16:28:13.091Z,94794.60
2018-09-03T16:30:42.858Z,94789.28
2018-09-03T16:33:12.680Z,94795.56
2018-09-03T16:35:42.649Z,94803.98
2018-09-03T16:38:12.528Z,94801.70
2018-09-03T16:40:42.379Z,94804.11
2018-09-03T16:43:12.253Z,94800.48
2018-09-03T16:45:42.153Z,94799.37
2018-09-03T16:48:12.130Z,94802.09
2018-09-03T16:50:41.907Z,94803.21
2018-09-03T16:53:11.743Z,94814.05
2018-09-03T16:55:41.522Z,94802.70
2018-09-03T16:58:11.420Z,94807.45
2018-09-03T17:00:41.309Z,94807.70
2018-09-03T17:03:11.172Z,94805.61
2018-09-03T17:05:40.956Z,94813.97
2018-09-03T17:08:11.034Z,94812.17
2018-09-03T17:10:41.259Z,94812.12
2018-09-03T17:13:11.084Z,94817.89
2018-09-03T17:15:41.155Z,94819.52
2018-09-03T17:18:11.085Z,94822.19
2018-09-03T17:20:40.953Z,94822.56
2018-09-03T17:23:10.652Z,94823.17
2018-09-03T17:25:40.403Z,94830.16
2018-09-03T17:28:10.154Z,94824.68
2018-09-03T17:30:40.051Z,94830.53
2018-09-03T17:33:09.873Z,94827.58
2018-09-03T17:35:39.791Z,94824.44
2018-09-03T17:38:09.644Z,94826.20
2018-09-03T17:40:39.393Z,94835.75
2018-09-03T17:43:09.223Z,94835.17
2018-09-03T17:45:39.018Z,94832.51
2018-09-03T17:48:08.966Z,94834.73
2018-09-03T17:50:38.877Z,94848.53
2018-09-03T17:53:08.734Z,94845.42
2018-09-03T17:55:38.507Z,94848.14
2018-09-03T17:58:08.354Z,94846.17
2018-09-03T18:00:38.146Z,94851.66
2018-09-03T18:03:08.089Z,94856.42
2018-09-03T18:05:38.930Z,94860.14
2018-09-03T18:08:09.255Z,94856.64
2018-09-03T18:10:39.126Z,94863.85
2018-09-03T18:13:09.851Z,94867.69
2018-09-03T18:15:39.748Z,94866.11
2018-09-03T18:18:09.449Z,94870.80
2018-09-03T18:20:39.191Z,94888.62
2018-09-03T18:23:08.950Z,94888.59
2018-09-03T18:25:38.798Z,94891.97
2018-09-03T18:28:08.556Z,94893.33
2018-09-03T18:30:38.349Z,94891.41
2018-09-03T18:33:08.251Z,94895.21
2018-09-03T18:35:38.190Z,94899.19
2018-09-03T18:38:08.015Z,94898.87
2018-09-03T18:40:37.738Z,94899.48
2018-09-03T18:43:07.565Z,94907.73
2018-09-03T18:45:37.346Z,94906.84
2018-09-03T18:48:07.455Z,94907.08
2018-09-03T18:50:37.357Z,94904.31
2018-09-03T18:53:07.403Z,94908.87
2018-09-03T18:55:37.296Z,94910.63
2018-09-03T18:58:07.105Z,94876.23
2018-09-03T19:00:36.926Z,94908.00
2018-09-03T19:03:06.644Z,94911.30
2018-09-03T19:05:36.695Z,94912.96
2018-09-03T19:08:06.978Z,94916.80
2018-09-03T19:10:36.798Z,94915.64
2018-09-03T19:13:06.601Z,94918.97
2018-09-03T19:15:36.569Z,94920.05
2018-09-03T19:18:06.322Z,94917.59
2018-09-03T19:20:36.223Z,94909.08
2018-09-03T19:23:06.036Z,94906.22
2018-09-03T19:25:35.829Z,94905.80
2018-09-03T19:28:05.875Z,94918.20
2018-09-03T19:30:35.675Z,94929.64
2018-09-03T19:33:05.624Z,94915.93
2018-09-03T19:35:35.336Z,94920.13
2018-09-03T19:38:05.276Z,94920.07
2018-09-03T19:40:35.437Z,94916.55
2018-09-03T19:43:05.433Z,94911.95
2018-09-03T19:45:35.184Z,94915.63
2018-09-03T19:48:05.106Z,94919.13
2018-09-03T19:50:34.956Z,94910.08
2018-09-03T19:53:04.772Z,94914.27
2018-09-03T19:55:34.530Z,94909.80
2018-09-03T19:58:04.354Z,94909.22
2018-09-03T20:00:34.244Z,94910.90
2018-09-03T20:03:04.082Z,94906.39
2018-09-03T20:05:34.049Z,94905.34
2018-09-03T20:08:03.814Z,94902.33
2018-09-03T20:10:33.785Z,94907.06
2018-09-03T20:13:03.605Z,94904.25
2018-09-03T20:15:33.566Z,94910.72
2018-09-03T20:18:03.528Z,94910.22
2018-09-03T20:20:33.402Z,94906.39
2018-09-03T20:23:03.162Z,94906.03
2018-09-03T20:25:33.106Z,94905.70
2018-09-03T20:28:02.883Z,94907.14
2018-09-03T20:30:32.772Z,94906.84
2018-09-03T20:33:02.601Z,94904.42
2018-09-03T20:35:32.427Z,94908.27
2018-09-03T20:38:02.207Z,94907.29
2018-09-03T20:40:32.034Z,94903.86
2018-09-03T20:43:01.958Z,94906.69
2018-09-03T20:45:31.801Z,94899.61
2018-09-03T20:48:01.746Z,94896.55
2018-09-03T20:50:31.525Z,94903.33
2018-09-03T20:53:01.260Z,94904.61
2018-09-03T20:55:31.305Z,94914.89
2018-09-03T20:58:01.156Z,94916.54
2018-09-03T21:00:30.977Z,94914.88
2018-09-03T21:03:00.831Z,94920.69
2018-09-03T21:05:30.661Z,94926.61
2018-09-03T21:08:00.411Z,94927.34
2018-09-03T21:10:30.175Z,94927.70
2018-09-03T21:13:00.146Z,94924.13
2018-09-03T21:15:29.903Z,94926.30
2018-09-03T21:17:59.711Z,94923.67
2018-09-03T21:20:29.888Z,94929.23
2018-09-03T21:22:59.611Z,94927.14
2018-09-03T21:25:29.300Z,94923.34
2018-09-03T21:27:59.149Z,94917.11
2018-09-03T21:30:28.774Z,94917.36
2018-09-03T21:32:58.509Z,94926.36
2018-09-03T21:35:28.349Z,94931.88
2018-09-03T21:37:58.380Z,94931.30
2018-09-03T21:40:28.126Z,94928.05
2018-09-03T21:42:57.880Z,94928.17
2018-09-03T21:45:27.655Z,94928.25
2018-09-03T21:47:57.402Z,94930.05
2018-09-03T21:50:27.156Z,94925.82
2018-09-03T21:52:56.913Z,94918.73
2018-09-03T21:55:26.839Z,94926.19
2018-09-03T21:57:56.728Z,94924.75
2018-09-03T22:00:26.602Z,94920.07
2018-09-03T22:02:56.299Z,94923.58
2018-09-03T22:05:26.007Z,94917.84
2018-09-03T22:07:55.683Z,94918.88
2018-09-03T22:10:25.580Z,94912.16
2018-09-03T22:12:55.467Z,94915.63
2018-09-03T22:15:25.298Z,94921.20
2018-09-03T22:17:55.196Z,94913.59
2018-09-03T22:20:24.800Z,94915.30
2018-09-03T22:22:54.703Z,94909.62
2018-09-03T22:25:24.666Z,94911.00
2018-09-03T22:27:54.493Z,94910.16
2018-09-03T22:30:24.425Z,94901.27
2018-09-03T22:32:54.313Z,94898.40
2018-09-03T22:35:24.101Z,94902.33
2018-09-03T22:37:53.992Z,94901.34
2018-09-03T22:40:24.007Z,94903.98
2018-09-03T22:42:53.734Z,94900.61
2018-09-03T22:45:23.419Z,94894.73
2018-09-03T22:47:53.183Z,94895.64
2018-09-03T22:50:23.022Z,94898.34
2018-09-03T22:52:52.902Z,94903.25
2018-09-03T22:55:22.802Z,94895.64
2018-09-03T22:57:52.552Z,94892.67
2018-09-03T23:00:22.303Z,94890.53
2018-09-03T23:02:51.991Z,94885.27
2018-09-03T23:05:21.780Z,94898.88
2018-09-03T23:07:51.587Z,94895.97
2018-09-03T23:10:21.246Z,94895.31
2018-09-03T23:12:51.150Z,94898.64
2018-09-03T23:15:21.002Z,94892.22
2018-09-03T23:17:50.711Z,94899.83
2018-09-03T23:20:20.563Z,94905.38
2018-09-03T23:22:50.431Z,94901.28
2018-09-03T23:25:20.562Z,94895.81
2018-09-03T23:27:50.340Z,94883.33
2018-09-03T23:30:20.421Z,94892.55
2018-09-03T23:32:50.316Z,94898.10
2018-09-03T23:35:20.138Z,94888.77
2018-09-03T23:37:49.912Z,94880.75
2018-09-03T23:40:19.632Z,94882.95
2018-09-03T23:42:49.455Z,94879.43
2018-09-03T23:45:19.167Z,94878.48
2018-09-03T23:47:49.317Z,94879.86
2018-09-03T23:50:19.280Z,94882.44
2018-09-03T23:52:49.118Z,94872.37
2018-09-03T23:55:18.812Z,94878.41
2018-09-03T23:57:48.930Z,94877.28
